GMMXLPLA

Guest
Details From GMMX - MENARA
To LPLA - LAJES
Flight Number -
Tags decoded
Created
Modified
Stats Distance 1,125 nm / 2,083 km
Max Altitude 0 ft / 0 m
Waypoints 10
Social Downloads 0
Likes 0
Share VATSIM

Download

Looking for another format? Having issues loading an existing format? Contact us
Advertisement - Login to hide

Notes

Requested: GMMX NAMIR ESS TOVRA DIMSA ABTIR OSDIV SNT UL600 IRKID BAVAS LPLA Unmatched points: ABTIR OSDIV

Route

GMMX NAMIR ESS DIMSA SNT UL600 IRKID BAVAS LPLA

ID Type Via Altitude Latitude Longitude Leg Dist Tot Dist Heading (true) Name
O GMMX APT - 0 ft / 0 m 31.60692˚ -8.03627˚ - 0 nm - MENARA
NAMIR FIX - 0 ft / 0 m 31.01000˚ -9.03444˚ 62 nm 62 nm 235° / 235° -
ESS VOR - 0 ft / 0 m 31.40124˚ -9.68696˚ 40 nm 103 nm 305° / 305° ESSAOUIRA VOR-DME
DIMSA FIX - 0 ft / 0 m 31.97194˚ -12.39889˚ 142 nm 246 nm 285° / 283° -
SNT VOR - 0 ft / 0 m 33.09028˚ -16.35056˚ 211 nm 457 nm 290° / 287° PORTO SANTO VOR-DME
IRSAN FIX UL600 (AWY-HI) 0 ft / 0 m 33.16667˚ -16.50444˚ 8 nm 466 nm 301° / 301° -
PELUS FIX UL600 (AWY-HI) 0 ft / 0 m 33.44528˚ -17.07111˚ 32 nm 499 nm 301° / 300° -
IRKID FIX UL600 (AWY-HI) 0 ft / 0 m 33.92500˚ -18.06917˚ 57 nm 556 nm 300° / 300° -
BAVAS FIX - 0 ft / 0 m 39.00000˚ -23.67833˚ 407 nm 964 nm 320° / 317° -
O LPLA APT - 0 ft / 0 m 38.76441˚ -27.09348˚ 160 nm 1124 nm 266° / 264° LAJES

Altitude Profile

Advertisement - Login to hide

Weather


0- 5 10 15 20 25 30 35+ Temperature / ° C

Clouds and Precipitation
Forecast for 2017-12-15 06:00 UTC. Updated an hour ago

Ground ~20,000 ft ~40,000 ft Winds

GMMX

Details ICAO GMMX (RAK)
Name MENARA
Region Morocco
Timezone Africa/Casablanca (UTC+0.0)
Stats Elevation 1,545 ft / 471 m (AMSL)
Location 31.606920° -8.036265°
Runways 1
Magnetic Variation 1.999° W

METAR

GMMX 150400Z 27002KT 5000 NSC 08/06 Q1021 NOSIG

Decode

TAF

TAF GMMX 142300Z 1500/1606 VRB02KT 6000 NSC PROB30 TEMPO 1502/1510 4000 BR BKN008 BECMG 1517/1519 32008KT SCT020

Decode

Departure Runways

ID Width Length Bearing (true) Bearing (mag) Surface Threshold Offset Overrun Length
10 148 ft / 45 m 10,169 ft / 3,100 m 95.99° 97.99° Asphalt 918 ft / 280 m 0 ft / 0 m
28 148 ft / 45 m 10,169 ft / 3,100 m 276.00° 278.00° Asphalt 0 ft / 0 m 0 ft / 0 m

LPLA

Details ICAO LPLA (TER)
Name LAJES
Region Portugal
Timezone Atlantic/Azores (UTC-1.0)
Stats Elevation 180 ft / 55 m (AMSL)
Location 38.764410° -27.093482°
Runways 1
Magnetic Variation 8.935° W

METAR

LPLA 150400Z /////KT 9999 FEW020 SCT030 16/15 Q1031

Decode

TAF

TAF LPLA 142305Z 1500/1524 30008KT 9999 SCT025= TAF LPPD 142300Z 1500/1524 33008KT 9999 FEW015 SCT030 TEMPO 1500/1524 SCT012 PROB30 TEMPO 1500/1524 5000 DZ SCT005 BKN010

Decode

Destination Runways

ID Width Length Bearing (true) Bearing (mag) Surface Threshold Offset Overrun Length
15 197 ft / 60 m 10,869 ft / 3,313 m 140.81° 149.74° Asphalt 0 ft / 0 m 991 ft / 302 m
33 197 ft / 60 m 10,869 ft / 3,313 m 320.82° 329.75° Asphalt 0 ft / 0 m 1,040 ft / 317 m

Approach Navaids

Runway Type Ident Frequency Range Bearing (true) Bearing (mag) Slope Elevation
15 Localiser DK 109.90 MHz 18 nm / 33 km 140.82° 149.76° - 180 ft / 55 m (AMSL)
15 Glidescope DK 109.90 MHz 10 nm / 19 km 140.81° 149.75° 3.00° 159 ft / 48 m (AMSL)
33 Localiser OZ 111.50 MHz 18 nm / 33 km 320.81° 329.75° - 158 ft / 48 m (AMSL)
33 Glidescope OZ 111.50 MHz 10 nm / 19 km 320.81° 329.75° 3.20° 180 ft / 55 m (AMSL)

Popular Alternatives